createdAt,value
2022-09-04T08:25:07.349Z,97.80
2022-09-04T08:27:44.251Z,98.10
2022-09-04T08:30:14.694Z,97.80
2022-09-04T08:32:56.311Z,97.90
2022-09-04T08:35:35.865Z,97.60
2022-09-04T08:38:40.676Z,97.20
2022-09-04T08:41:42.879Z,96.80
2022-09-04T08:44:28.945Z,96.50
2022-09-04T08:47:19.793Z,96.50
2022-09-04T08:50:23.904Z,96.60
2022-09-04T08:53:26.271Z,96.40
2022-09-04T08:56:18.523Z,96.40
2022-09-04T08:58:55.346Z,96.30
2022-09-04T09:02:01.499Z,95.90
2022-09-04T09:05:00.141Z,96.00
2022-09-04T09:07:58.513Z,95.30
2022-09-04T09:10:35.902Z,95.30
2022-09-04T09:13:24.140Z,95.00
2022-09-04T09:16:09.074Z,94.90
2022-09-04T09:18:41.538Z,95.00
2022-09-04T09:21:22.157Z,94.70
2022-09-04T09:24:26.451Z,94.40
2022-09-04T09:27:02.658Z,94.60
2022-09-04T09:30:07.962Z,94.70
2022-09-04T09:32:53.739Z,94.90
2022-09-04T09:35:30.165Z,94.50
2022-09-04T09:38:27.409Z,94.40
2022-09-04T09:41:20.243Z,94.50
2022-09-04T09:44:11.535Z,94.50
2022-09-04T09:46:42.561Z,94.30
2022-09-04T09:49:35.208Z,94.30
2022-09-04T09:52:15.998Z,94.50
2022-09-04T09:55:17.054Z,94.20
2022-09-04T09:58:02.462Z,94.10
2022-09-04T10:01:22.349Z,94.00
2022-09-04T10:04:23.951Z,94.00
2022-09-04T10:07:10.777Z,94.10
2022-09-04T10:10:16.560Z,94.10
2022-09-04T10:12:55.593Z,94.10
2022-09-04T10:15:55.514Z,93.70
2022-09-04T10:19:00.507Z,93.60
2022-09-04T10:22:15.215Z,93.60
2022-09-04T10:25:15.881Z,93.90
2022-09-04T10:27:58.300Z,93.20
2022-09-04T10:30:41.793Z,93.20
2022-09-04T10:33:43.867Z,92.70
2022-09-04T10:36:23.392Z,92.80
2022-09-04T10:39:41.073Z,93.00
2022-09-04T10:42:26.414Z,92.50
2022-09-04T10:45:22.255Z,92.30
2022-09-04T10:48:07.715Z,92.30
2022-09-04T10:50:58.144Z,91.70
2022-09-04T10:53:28.628Z,91.40
2022-09-04T10:56:02.926Z,91.30
2022-09-04T10:58:45.169Z,91.40
2022-09-04T11:01:30.317Z,91.40
2022-09-04T11:04:15.131Z,90.60
2022-09-04T11:07:01.236Z,90.40
2022-09-04T11:09:42.791Z,90.10
2022-09-04T11:12:17.643Z,90.40
2022-09-04T11:15:11.267Z,89.50
2022-09-04T11:18:09.107Z,89.60
2022-09-04T11:20:51.298Z,89.70
2022-09-04T11:23:48.770Z,90.00
2022-09-04T11:26:36.460Z,89.80
2022-09-04T11:29:18.025Z,89.00
2022-09-04T11:32:13.737Z,86.60
2022-09-04T11:35:01.363Z,86.50
2022-09-04T11:37:34.878Z,87.30
2022-09-04T11:40:33.080Z,87.10
2022-09-04T11:43:32.089Z,87.20
2022-09-04T11:46:22.382Z,86.70
2022-09-04T11:49:10.729Z,85.50
2022-09-04T11:52:22.779Z,87.10
2022-09-04T11:55:25.377Z,85.20
2022-09-04T11:58:20.516Z,84.10
2022-09-04T12:00:59.641Z,85.20
2022-09-04T12:03:49.534Z,85.00
2022-09-04T12:06:29.596Z,84.60
2022-09-04T12:09:51.368Z,83.60
2022-09-04T12:12:45.655Z,84.00
2022-09-04T12:15:32.741Z,84.10
2022-09-04T12:18:26.891Z,83.10
2022-09-04T12:20:59.999Z,83.10
2022-09-04T12:23:58.190Z,84.20
2022-09-04T12:26:52.125Z,82.20
2022-09-04T12:29:38.950Z,82.50
2022-09-04T12:32:20.710Z,82.20
2022-09-04T12:35:06.892Z,81.80
2022-09-04T12:37:48.504Z,82.40
2022-09-04T12:40:34.432Z,82.50
2022-09-04T12:43:31.082Z,82.10
2022-09-04T12:46:26.994Z,82.50
2022-09-04T12:48:56.736Z,82.70
2022-09-04T12:51:25.320Z,82.20
2022-09-04T12:54:14.757Z,80.90
2022-09-04T12:56:50.175Z,82.40
2022-09-04T12:59:31.665Z,82.00
2022-09-04T13:02:27.971Z,82.60
2022-09-04T13:05:06.818Z,83.00
2022-09-04T13:07:41.016Z,81.90
2022-09-04T13:10:28.985Z,81.00
2022-09-04T13:13:16.769Z,81.70
2022-09-04T13:16:09.062Z,79.00
2022-09-04T13:18:58.423Z,79.40
2022-09-04T13:21:41.576Z,80.90
2022-09-04T13:24:26.609Z,78.70
2022-09-04T13:27:28.216Z,79.00
2022-09-04T13:30:08.300Z,76.80
2022-09-04T13:33:00.306Z,75.60
2022-09-04T13:35:59.360Z,74.60
2022-09-04T13:38:57.777Z,75.40
2022-09-04T13:42:01.351Z,74.50
2022-09-04T13:45:06.599Z,76.70
2022-09-04T13:47:45.042Z,74.60
2022-09-04T13:50:16.293Z,73.10
2022-09-04T13:52:59.647Z,74.70
2022-09-04T13:55:39.596Z,73.80
2022-09-04T13:58:22.281Z,73.10
2022-09-04T14:00:57.347Z,75.60
2022-09-04T14:03:39.502Z,72.20
2022-09-04T14:06:11.500Z,74.40
2022-09-04T14:08:39.917Z,75.20
2022-09-04T14:11:22.130Z,73.90
2022-09-04T14:14:20.011Z,76.40
2022-09-04T14:16:49.563Z,75.50
2022-09-04T14:20:01.648Z,74.70
2022-09-04T14:22:58.001Z,73.90
2022-09-04T14:25:42.641Z,75.00
2022-09-04T14:28:21.045Z,74.10
2022-09-04T14:31:14.791Z,74.90
2022-09-04T14:34:03.922Z,74.60
2022-09-04T14:36:56.660Z,76.90
2022-09-04T14:39:47.488Z,76.50
2022-09-04T14:42:29.510Z,74.80
2022-09-04T14:45:13.371Z,76.30
2022-09-04T14:47:55.103Z,75.90
2022-09-04T14:50:31.458Z,75.90
2022-09-04T14:53:06.197Z,77.50
2022-09-04T14:55:35.900Z,77.20
2022-09-04T14:58:29.338Z,76.80
2022-09-04T15:01:09.084Z,75.80
2022-09-04T15:04:00.244Z,76.80
2022-09-04T15:07:07.934Z,78.60
2022-09-04T15:09:45.716Z,78.40
2022-09-04T15:12:34.403Z,77.60
2022-09-04T15:15:15.832Z,79.10
2022-09-04T15:17:52.824Z,78.00
2022-09-04T15:20:28.415Z,77.10
2022-09-04T15:23:01.543Z,75.60
2022-09-04T15:25:57.184Z,80.20
2022-09-04T15:28:44.108Z,82.10
2022-09-04T15:31:16.614Z,82.00
2022-09-04T15:33:47.741Z,82.40
2022-09-04T15:36:20.868Z,82.50
2022-09-04T15:39:00.212Z,82.50
2022-09-04T15:41:39.684Z,83.40
2022-09-04T15:44:31.741Z,83.50
2022-09-04T15:47:20.496Z,83.70
2022-09-04T15:49:55.326Z,83.70
2022-09-04T15:52:58.583Z,83.90
2022-09-04T15:55:33.859Z,84.40
2022-09-04T15:58:19.891Z,84.40
2022-09-04T16:01:06.397Z,84.00
2022-09-04T16:03:44.787Z,84.00
2022-09-04T16:06:31.755Z,84.20
2022-09-04T16:09:06.794Z,83.70
2022-09-04T16:11:45.311Z,84.00
2022-09-04T16:14:23.063Z,83.70
2022-09-04T16:17:00.054Z,83.00
2022-09-04T16:19:33.792Z,83.00
2022-09-04T16:22:15.170Z,82.70
2022-09-04T16:24:51.093Z,82.40
2022-09-04T16:27:24.117Z,81.90
2022-09-04T16:30:05.521Z,81.00
2022-09-04T16:32:35.233Z,82.10
2022-09-04T16:35:12.453Z,82.30
2022-09-04T16:37:51.475Z,81.90
2022-09-04T16:40:38.039Z,82.30
2022-09-04T16:43:21.691Z,82.30
2022-09-04T16:45:55.231Z,82.30
2022-09-04T16:49:01.005Z,81.10
2022-09-04T16:51:39.820Z,81.10
2022-09-04T16:54:43.803Z,81.40
2022-09-04T16:57:17.221Z,81.20
2022-09-04T16:59:57.299Z,81.40
2022-09-04T17:02:51.148Z,81.70
2022-09-04T17:05:34.953Z,82.50
2022-09-04T17:08:17.934Z,83.00
2022-09-04T17:11:04.262Z,83.90
2022-09-04T17:14:08.399Z,83.90
2022-09-04T17:16:53.347Z,83.90
2022-09-04T17:19:22.065Z,84.00
2022-09-04T17:28:56.486Z,84.40
2022-09-04T17:29:11.749Z,86.10
2022-09-04T17:29:18.963Z,85.00
2022-09-04T17:31:17.550Z,86.40
2022-09-04T17:40:26.402Z,87.30
2022-09-04T17:40:51.889Z,87.40
2022-09-04T17:40:53.464Z,87.50
2022-09-04T17:42:57.134Z,87.40
2022-09-04T17:46:12.701Z,88.10
2022-09-04T17:48:43.986Z,88.40
2022-09-04T17:51:25.559Z,89.40
2022-09-04T17:54:00.700Z,89.10
2022-09-04T17:56:45.280Z,89.30
2022-09-04T17:59:16.092Z,89.30
2022-09-04T18:01:55.054Z,90.00
2022-09-04T18:04:53.377Z,90.20
2022-09-04T18:08:07.979Z,90.30
2022-09-04T18:11:02.990Z,90.00
2022-09-04T18:13:39.537Z,90.00
2022-09-04T18:16:09.623Z,90.00
2022-09-04T18:18:49.530Z,90.20
2022-09-04T18:21:31.317Z,90.30
2022-09-04T18:24:03.881Z,90.40
2022-09-04T18:26:41.735Z,90.50
2022-09-04T18:31:11.261Z,90.60
2022-09-04T18:37:18.978Z,90.80
2022-09-04T18:37:21.678Z,91.30
2022-09-04T18:39:08.777Z,91.00
2022-09-04T18:48:42.902Z,91.00
2022-09-04T18:50:25.573Z,91.70
2022-09-04T18:50:43.764Z,91.50
2022-09-04T18:54:01.041Z,91.80
2022-09-04T18:56:32.668Z,91.80
2022-09-04T18:59:05.916Z,91.90
2022-09-04T19:01:48.257Z,92.00
2022-09-04T19:04:43.536Z,91.90
2022-09-04T19:07:32.764Z,92.00
2022-09-04T19:10:17.737Z,92.50
2022-09-04T19:12:55.867Z,92.30
2022-09-04T19:15:48.134Z,92.50
2022-09-04T19:18:27.523Z,92.90
2022-09-04T19:21:14.219Z,92.70
2022-09-04T19:23:53.276Z,92.70
2022-09-04T19:26:29.412Z,92.80
2022-09-04T19:29:20.947Z,92.90
2022-09-04T19:31:57.184Z,93.30
2022-09-04T19:34:48.176Z,93.40
2022-09-04T19:39:21.038Z,93.50
2022-09-04T19:46:06.804Z,93.20
2022-09-04T19:46:07.453Z,93.40
2022-09-04T19:47:27.261Z,93.20
2022-09-04T19:52:38.226Z,93.30
2022-09-04T19:53:36.808Z,93.20
2022-09-04T19:56:09.475Z,93.30
2022-09-04T19:58:42.069Z,93.40
2022-09-04T20:01:23.782Z,93.40
2022-09-04T20:03:57.638Z,93.40
2022-09-04T20:06:31.835Z,93.40
2022-09-04T20:09:10.951Z,93.50
2022-09-04T20:11:55.683Z,93.60
2022-09-04T20:14:37.668Z,93.50
2022-09-04T20:17:25.776Z,93.60
2022-09-04T20:19:57.036Z,93.60
2022-09-04T20:22:28.925Z,93.70
2022-09-04T20:25:02.617Z,94.10
2022-09-04T20:28:00.596Z,94.10
2022-09-04T20:30:29.977Z,93.80
2022-09-04T20:33:06.122Z,93.70
2022-09-04T20:35:40.116Z,93.80
2022-09-04T20:38:32.619Z,93.50
2022-09-04T20:41:16.684Z,93.90
2022-09-04T20:44:13.588Z,93.90
2022-09-04T20:52:41.352Z,94.10
2022-09-04T20:53:05.302Z,94.10
2022-09-04T20:53:35.189Z,94.50
2022-09-04T20:57:00.994Z,94.70
2022-09-04T21:03:08.399Z,94.70
2022-09-04T21:03:21.496Z,94.70
2022-09-04T21:06:06.744Z,94.50
2022-09-04T21:08:49.713Z,94.50
2022-09-04T21:11:39.686Z,94.30
2022-09-04T21:14:08.507Z,94.30
2022-09-04T21:16:45.973Z,94.10
2022-09-04T21:19:28.973Z,94.00
2022-09-04T21:22:21.798Z,94.00
2022-09-04T21:25:27.498Z,93.80
2022-09-04T21:28:08.091Z,93.70
2022-09-04T21:30:50.300Z,93.60
2022-09-04T21:33:45.711Z,93.90
2022-09-04T21:36:26.778Z,93.60
2022-09-04T21:39:08.984Z,93.50
2022-09-04T21:42:16.648Z,93.30
2022-09-04T21:45:09.562Z,93.20
2022-09-04T21:47:39.496Z,93.20
2022-09-04T21:50:26.210Z,93.20
2022-09-04T21:53:28.345Z,93.00
2022-09-04T21:59:28.235Z,92.90
2022-09-04T22:02:38.112Z,92.80
2022-09-04T22:02:55.629Z,92.80
2022-09-04T22:05:37.540Z,92.50
2022-09-04T22:13:34.298Z,92.70
2022-09-04T22:13:37.849Z,92.30
2022-09-04T22:14:38.984Z,92.10
2022-09-04T22:17:33.520Z,91.90
2022-09-04T22:20:19.837Z,92.00
2022-09-04T22:23:05.640Z,91.80
2022-09-04T22:26:24.166Z,91.70
2022-09-04T22:29:08.428Z,91.70
2022-09-04T22:31:44.741Z,91.30
2022-09-04T22:34:36.439Z,90.70
2022-09-04T22:37:30.836Z,90.60
2022-09-04T22:40:17.193Z,90.80
2022-09-04T22:42:58.841Z,90.70
2022-09-04T22:45:43.891Z,90.50
2022-09-04T22:48:47.913Z,90.30
2022-09-04T22:52:00.867Z,90.20
2022-09-04T22:54:39.072Z,90.30
2022-09-04T22:57:19.940Z,90.50
2022-09-04T23:00:02.955Z,90.80
2022-09-04T23:06:29.435Z,91.60
2022-09-04T23:13:51.607Z,91.50
2022-09-04T23:13:53.395Z,91.50
2022-09-04T23:15:39.433Z,91.80
2022-09-04T23:18:57.065Z,92.50
2022-09-04T23:26:36.493Z,92.80
2022-09-04T23:26:43.382Z,92.80
2022-09-04T23:27:52.050Z,93.00
2022-09-04T23:30:25.518Z,92.90
2022-09-04T23:33:03.883Z,93.00
2022-09-04T23:35:58.432Z,93.10
2022-09-04T23:38:59.473Z,92.90
2022-09-04T23:41:52.711Z,93.10
2022-09-04T23:44:49.372Z,93.20
2022-09-04T23:47:47.611Z,93.00
2022-09-04T23:50:16.291Z,93.10
2022-09-04T23:53:12.320Z,93.50
2022-09-04T23:55:52.752Z,93.60
2022-09-04T23:59:11.202Z,93.90
